createdAt,value
2018-10-09T01:13:58.545Z,81.27
2018-10-09T01:16:25.960Z,81.50
2018-10-09T01:18:53.407Z,82.45
2018-10-09T01:21:20.827Z,82.83
2018-10-09T01:23:48.246Z,82.36
2018-10-09T01:26:15.676Z,82.00
2018-10-09T01:28:43.096Z,82.01
2018-10-09T01:31:10.614Z,82.42
2018-10-09T01:33:38.036Z,82.64
2018-10-09T01:36:05.451Z,82.20
2018-10-09T01:38:32.872Z,82.78
2018-10-09T01:41:00.300Z,82.79
2018-10-09T01:43:27.724Z,82.03
2018-10-09T01:45:55.339Z,81.85
2018-10-09T01:48:22.805Z,81.96
2018-10-09T01:50:50.257Z,80.90
2018-10-09T01:53:17.712Z,80.68
2018-10-09T01:55:45.207Z,81.24
2018-10-09T01:58:12.614Z,81.13
2018-10-09T02:00:40.039Z,81.75
2018-10-09T02:03:07.547Z,82.12
2018-10-09T02:05:35.004Z,81.92
2018-10-09T02:08:02.560Z,81.54
2018-10-09T02:10:29.987Z,81.67
2018-10-09T02:12:57.487Z,81.42
2018-10-09T02:15:24.937Z,81.02
2018-10-09T02:17:52.351Z,81.01
2018-10-09T02:20:19.855Z,81.20
2018-10-09T02:22:47.264Z,81.65
2018-10-09T02:25:14.687Z,81.85
2018-10-09T02:27:42.095Z,81.84
2018-10-09T02:30:09.885Z,82.37
2018-10-09T02:32:37.270Z,82.36
2018-10-09T02:35:04.696Z,82.72
2018-10-09T02:37:32.165Z,82.49
2018-10-09T02:39:59.588Z,83.01
2018-10-09T02:42:27.039Z,82.75
2018-10-09T02:44:54.476Z,82.42
2018-10-09T02:47:21.887Z,82.67
2018-10-09T02:49:49.313Z,83.20
2018-10-09T02:52:16.727Z,83.42
2018-10-09T02:54:44.255Z,83.38
2018-10-09T02:57:11.666Z,83.83
2018-10-09T02:59:39.187Z,84.12
2018-10-09T03:02:06.631Z,84.37
2018-10-09T03:04:34.091Z,83.98
2018-10-09T03:07:01.510Z,83.62
2018-10-09T03:09:28.927Z,84.71
2018-10-09T03:11:56.355Z,83.92
2018-10-09T03:14:23.788Z,83.48
2018-10-09T03:16:51.236Z,83.63
2018-10-09T03:19:18.659Z,83.97
2018-10-09T03:21:46.067Z,84.58
2018-10-09T03:24:13.538Z,85.04
2018-10-09T03:26:40.954Z,84.67
2018-10-09T03:29:08.456Z,85.07
2018-10-09T03:31:35.891Z,85.19
2018-10-09T03:34:03.315Z,85.23
2018-10-09T03:36:30.739Z,85.32
2018-10-09T03:38:58.151Z,84.94
2018-10-09T03:41:25.619Z,85.06
2018-10-09T03:43:53.199Z,84.58
2018-10-09T03:46:20.667Z,84.43
2018-10-09T03:48:48.075Z,84.37
2018-10-09T03:51:15.503Z,83.89
2018-10-09T03:53:42.925Z,83.75
2018-10-09T03:56:10.350Z,83.61
2018-10-09T03:58:37.847Z,83.69
2018-10-09T04:01:05.378Z,84.24
2018-10-09T04:03:33.040Z,84.36
2018-10-09T04:06:00.524Z,84.35
2018-10-09T04:08:27.951Z,84.08
2018-10-09T04:10:55.436Z,84.18
2018-10-09T04:13:22.898Z,83.77
2018-10-09T04:15:50.434Z,83.31
2018-10-09T04:18:17.915Z,83.25
2018-10-09T04:20:45.439Z,83.17
2018-10-09T04:23:12.877Z,84.18
2018-10-09T04:25:40.291Z,84.92
2018-10-09T04:28:07.744Z,85.03
2018-10-09T04:30:35.183Z,85.15
2018-10-09T04:33:02.602Z,85.41
2018-10-09T04:35:30.099Z,85.65
2018-10-09T04:37:57.467Z,85.52
2018-10-09T04:40:24.880Z,84.92
2018-10-09T04:42:52.295Z,85.11
2018-10-09T04:45:19.748Z,85.27
2018-10-09T04:47:47.178Z,84.75
2018-10-09T04:50:14.612Z,84.72
2018-10-09T04:52:42.037Z,83.82
2018-10-09T04:55:09.472Z,84.05
2018-10-09T04:57:36.892Z,84.45
2018-10-09T05:00:04.443Z,84.71
2018-10-09T05:02:31.854Z,84.46
2018-10-09T05:04:59.283Z,84.44
2018-10-09T05:07:26.691Z,84.65
2018-10-09T05:09:54.111Z,84.61
2018-10-09T05:12:21.547Z,83.98
2018-10-09T05:14:48.974Z,83.64
2018-10-09T05:17:16.484Z,83.25
2018-10-09T05:19:43.946Z,83.41
2018-10-09T05:22:11.363Z,84.52
2018-10-09T05:24:38.779Z,85.58
2018-10-09T05:27:06.227Z,85.44
2018-10-09T05:29:33.630Z,85.70
2018-10-09T05:32:01.132Z,85.67
2018-10-09T05:34:28.548Z,85.55
2018-10-09T05:36:56.046Z,85.05
2018-10-09T05:39:23.464Z,85.13
2018-10-09T05:41:50.875Z,85.36
2018-10-09T05:44:18.345Z,85.26
2018-10-09T05:46:45.787Z,85.28
2018-10-09T05:49:13.201Z,85.02
2018-10-09T05:51:40.615Z,84.65
2018-10-09T05:54:08.040Z,84.61
2018-10-09T05:56:35.606Z,84.29
2018-10-09T05:59:03.074Z,84.36
2018-10-09T06:01:30.515Z,83.61
2018-10-09T06:03:57.931Z,83.44
2018-10-09T06:06:25.352Z,83.38
2018-10-09T06:08:52.779Z,83.35
2018-10-09T06:11:20.196Z,83.41
2018-10-09T06:13:47.608Z,82.45
2018-10-09T06:16:15.029Z,82.23
2018-10-09T06:18:42.449Z,82.06
2018-10-09T06:21:09.872Z,81.70
2018-10-09T06:23:37.343Z,80.89
2018-10-09T06:26:04.763Z,81.00
2018-10-09T06:28:32.246Z,80.53
2018-10-09T06:30:59.614Z,80.35
2018-10-09T06:33:27.053Z,79.75
2018-10-09T06:35:54.519Z,79.47
2018-10-09T06:38:21.955Z,79.26
2018-10-09T06:40:49.447Z,79.51
2018-10-09T06:43:17.021Z,78.71
2018-10-09T06:45:44.388Z,78.75
2018-10-09T06:48:11.803Z,77.99
2018-10-09T06:50:39.233Z,77.50
2018-10-09T06:53:06.659Z,77.55
2018-10-09T06:55:34.076Z,77.31
2018-10-09T06:58:01.499Z,76.65
2018-10-09T07:00:28.920Z,76.60
2018-10-09T07:02:56.354Z,75.86
2018-10-09T07:05:23.784Z,75.46
2018-10-09T07:07:51.210Z,75.44
2018-10-09T07:10:18.727Z,74.18
2018-10-09T07:12:46.148Z,73.22
2018-10-09T07:15:13.645Z,71.43
2018-10-09T07:17:41.095Z,72.11
2018-10-09T07:20:08.528Z,70.95
2018-10-09T07:22:35.959Z,70.37
2018-10-09T07:25:03.368Z,69.42
2018-10-09T07:27:30.799Z,69.12
2018-10-09T07:29:58.216Z,69.32
2018-10-09T07:32:25.660Z,69.21
2018-10-09T07:34:53.091Z,69.27
2018-10-09T07:37:20.518Z,68.99
2018-10-09T07:39:47.948Z,69.01
2018-10-09T07:42:15.355Z,70.09
2018-10-09T07:44:42.779Z,69.07
2018-10-09T07:47:10.219Z,69.77
2018-10-09T07:49:37.640Z,69.40
2018-10-09T07:52:05.059Z,69.14
2018-10-09T07:54:32.507Z,69.41
2018-10-09T07:57:00.135Z,70.13
2018-10-09T07:59:27.567Z,70.46
2018-10-09T08:01:55.027Z,70.73
2018-10-09T08:04:22.435Z,70.61
2018-10-09T08:06:49.871Z,71.06
2018-10-09T08:09:17.299Z,69.62
2018-10-09T08:11:44.729Z,68.50
2018-10-09T08:14:12.147Z,67.60
2018-10-09T08:16:39.577Z,66.58
2018-10-09T08:19:07.007Z,66.25
2018-10-09T08:21:34.424Z,66.16
2018-10-09T08:24:01.852Z,66.29
2018-10-09T08:26:29.271Z,66.75
2018-10-09T08:28:56.702Z,66.75
2018-10-09T08:31:24.122Z,67.29
2018-10-09T08:33:51.561Z,66.80
2018-10-09T08:36:18.977Z,65.84
2018-10-09T08:38:46.412Z,66.47
2018-10-09T08:41:13.856Z,65.92
2018-10-09T08:43:41.251Z,66.03
2018-10-09T08:46:08.736Z,65.96
2018-10-09T08:48:36.123Z,66.76
2018-10-09T08:51:03.577Z,66.96
2018-10-09T08:53:30.995Z,65.50
2018-10-09T08:55:58.437Z,65.59
2018-10-09T08:58:25.887Z,64.91
2018-10-09T09:00:53.326Z,63.87
2018-10-09T09:03:20.803Z,63.47
2018-10-09T09:05:48.195Z,64.16
2018-10-09T09:08:15.623Z,63.52
2018-10-09T09:10:43.057Z,63.61
2018-10-09T09:13:10.485Z,64.02
2018-10-09T09:15:37.915Z,62.82
2018-10-09T09:18:05.349Z,62.59
2018-10-09T09:20:32.842Z,62.08
2018-10-09T09:23:00.197Z,61.62
2018-10-09T09:25:27.620Z,61.48
2018-10-09T09:27:55.049Z,62.42
2018-10-09T09:30:22.540Z,61.99
2018-10-09T09:32:49.951Z,62.16
2018-10-09T09:35:17.388Z,61.13
2018-10-09T09:37:44.807Z,60.92
2018-10-09T09:40:12.249Z,59.96
2018-10-09T09:42:39.666Z,59.69
2018-10-09T09:45:07.192Z,58.69
2018-10-09T09:47:34.623Z,60.11
2018-10-09T09:50:02.053Z,60.63
2018-10-09T09:52:29.472Z,58.98
2018-10-09T09:54:56.895Z,58.41
2018-10-09T09:57:24.319Z,59.23
2018-10-09T09:59:52.248Z,59.66
2018-10-09T10:02:19.701Z,60.13
2018-10-09T10:04:47.132Z,59.49
2018-10-09T10:07:14.555Z,60.17
2018-10-09T10:09:41.984Z,60.22
2018-10-09T10:12:09.409Z,60.53
2018-10-09T10:14:36.824Z,60.28
2018-10-09T10:17:04.249Z,60.47
2018-10-09T10:19:31.675Z,60.39
2018-10-09T10:21:59.108Z,61.47
2018-10-09T10:24:26.537Z,60.85
2018-10-09T10:26:53.972Z,59.89
2018-10-09T10:29:21.406Z,58.42
2018-10-09T10:31:48.820Z,58.58
2018-10-09T10:34:16.240Z,58.18
2018-10-09T10:36:43.672Z,58.82
2018-10-09T10:39:11.934Z,58.55
2018-10-09T10:41:39.368Z,57.42
2018-10-09T10:44:06.776Z,58.23
2018-10-09T10:46:37.331Z,57.26
2018-10-09T10:49:05.506Z,57.53
2018-10-09T10:51:32.812Z,56.53
2018-10-09T10:54:00.224Z,57.02
2018-10-09T10:56:27.791Z,56.66
2018-10-09T10:58:55.220Z,55.93
2018-10-09T11:01:22.750Z,56.80
2018-10-09T11:03:50.057Z,56.57
2018-10-09T11:06:17.700Z,56.09
2018-10-09T11:08:45.152Z,55.73
2018-10-09T11:11:12.572Z,56.11
2018-10-09T11:13:39.999Z,55.47
2018-10-09T11:16:07.423Z,56.87
2018-10-09T11:18:34.843Z,56.36
2018-10-09T11:21:02.313Z,56.85
2018-10-09T11:23:29.700Z,57.00
2018-10-09T11:25:57.123Z,56.65
2018-10-09T11:28:24.543Z,56.79
2018-10-09T11:30:51.976Z,55.78
2018-10-09T11:33:19.420Z,56.07
2018-10-09T11:35:46.844Z,55.74
2018-10-09T11:38:14.272Z,55.70
2018-10-09T11:40:42.304Z,55.83
2018-10-09T11:43:09.720Z,56.42
2018-10-09T11:45:37.144Z,56.52
2018-10-09T11:48:04.568Z,55.97
2018-10-09T11:50:31.997Z,56.29
2018-10-09T11:53:00.005Z,55.55
2018-10-09T11:55:27.437Z,55.16
2018-10-09T11:57:55.327Z,56.16
2018-10-09T12:00:22.753Z,55.26
2018-10-09T12:02:50.209Z,54.78
2018-10-09T12:05:17.599Z,55.18
2018-10-09T12:07:45.036Z,55.92
2018-10-09T12:10:12.528Z,54.84
2018-10-09T12:12:39.948Z,55.44
2018-10-09T12:15:07.377Z,54.92
2018-10-09T12:17:34.797Z,55.20
2018-10-09T12:20:02.223Z,54.90
2018-10-09T12:22:29.639Z,54.17
2018-10-09T12:24:57.055Z,55.33
2018-10-09T12:27:24.473Z,55.46
2018-10-09T12:29:51.971Z,54.54
2018-10-09T12:32:19.392Z,54.23
2018-10-09T12:34:46.803Z,54.27
2018-10-09T12:37:14.231Z,53.90
2018-10-09T12:39:41.647Z,53.22
2018-10-09T12:42:09.083Z,52.56
2018-10-09T12:44:36.515Z,53.06
2018-10-09T12:47:03.947Z,53.05
2018-10-09T12:49:31.363Z,52.92
2018-10-09T12:51:58.789Z,53.76
2018-10-09T12:54:26.201Z,53.46
2018-10-09T12:56:53.653Z,52.67
2018-10-09T12:59:21.035Z,53.24
2018-10-09T13:01:48.474Z,53.05
2018-10-09T13:04:15.901Z,52.97
2018-10-09T13:06:43.322Z,52.79
2018-10-09T13:09:12.213Z,53.71
2018-10-09T13:11:39.650Z,54.29
2018-10-09T13:14:07.069Z,53.93
2018-10-09T13:16:34.488Z,53.46
2018-10-09T13:19:02.015Z,52.38
2018-10-09T13:21:29.612Z,53.49
2018-10-09T13:23:56.892Z,52.75
2018-10-09T13:26:24.316Z,52.30
2018-10-09T13:28:51.754Z,52.19
2018-10-09T13:31:19.173Z,53.36
2018-10-09T13:33:46.586Z,52.60
2018-10-09T13:36:14.015Z,51.66
2018-10-09T13:38:41.432Z,53.05
2018-10-09T13:41:08.905Z,52.88
2018-10-09T13:43:36.257Z,51.95
2018-10-09T13:46:03.684Z,53.31
2018-10-09T13:48:31.125Z,53.65
2018-10-09T13:50:58.607Z,52.66
2018-10-09T13:53:25.955Z,53.05
2018-10-09T13:55:53.427Z,53.76
2018-10-09T13:58:20.828Z,52.42
2018-10-09T14:00:48.241Z,52.83
2018-10-09T14:03:15.663Z,53.28
2018-10-09T14:05:43.081Z,53.71
2018-10-09T14:08:10.496Z,52.56
2018-10-09T14:10:37.920Z,52.90
2018-10-09T14:13:05.348Z,52.85
2018-10-09T14:15:32.768Z,52.82
2018-10-09T14:18:00.191Z,52.68
2018-10-09T14:20:27.599Z,53.58
2018-10-09T14:22:55.085Z,53.25
2018-10-09T14:25:22.427Z,53.24
2018-10-09T14:27:49.847Z,53.36
2018-10-09T14:30:17.270Z,52.85
2018-10-09T14:32:44.690Z,52.53
2018-10-09T14:35:12.108Z,52.75
2018-10-09T14:37:39.531Z,53.00
2018-10-09T14:40:06.956Z,52.16
2018-10-09T14:42:34.387Z,53.04
2018-10-09T14:45:01.808Z,52.86
2018-10-09T14:47:29.229Z,52.68
2018-10-09T14:49:56.639Z,53.14
2018-10-09T14:52:24.064Z,53.73
2018-10-09T14:54:51.482Z,52.73
2018-10-09T14:57:18.897Z,53.06
2018-10-09T14:59:46.300Z,52.93
2018-10-09T15:02:13.719Z,53.28
2018-10-09T15:04:41.140Z,52.81
2018-10-09T15:07:08.570Z,53.08
2018-10-09T15:09:36.029Z,53.07
2018-10-09T15:12:03.412Z,52.70
2018-10-09T15:14:30.855Z,52.44
2018-10-09T15:16:58.350Z,53.10
2018-10-09T15:19:25.703Z,52.75
2018-10-09T15:21:53.164Z,54.03
2018-10-09T15:24:20.574Z,53.19
2018-10-09T15:26:48.005Z,54.35
2018-10-09T15:29:15.510Z,53.49
2018-10-09T15:31:42.943Z,54.57
2018-10-09T15:34:10.334Z,53.76
2018-10-09T15:36:37.768Z,53.46
2018-10-09T15:39:05.208Z,52.63
2018-10-09T15:41:32.702Z,53.18
2018-10-09T15:44:00.047Z,53.13
2018-10-09T15:46:27.479Z,53.57
2018-10-09T15:48:54.901Z,53.76
2018-10-09T15:51:22.310Z,54.05
2018-10-09T15:53:49.739Z,54.84
2018-10-09T15:56:17.175Z,55.31
2018-10-09T15:58:44.588Z,55.18
2018-10-09T16:01:12.009Z,56.61
2018-10-09T16:03:39.419Z,56.79
2018-10-09T16:06:06.827Z,56.71
2018-10-09T16:08:34.260Z,57.26
2018-10-09T16:11:01.685Z,57.75
2018-10-09T16:13:29.101Z,58.23
2018-10-09T16:15:56.520Z,59.05
2018-10-09T16:18:23.939Z,58.82
2018-10-09T16:20:51.413Z,58.82
2018-10-09T16:23:18.782Z,59.82
2018-10-09T16:25:46.223Z,60.10
2018-10-09T16:28:13.655Z,60.63
2018-10-09T16:30:41.079Z,61.26
2018-10-09T16:33:08.500Z,60.37
2018-10-09T16:35:35.921Z,59.94
2018-10-09T16:38:03.337Z,60.13
2018-10-09T16:40:30.827Z,59.62
2018-10-09T16:42:58.177Z,59.78
2018-10-09T16:45:25.606Z,59.42
2018-10-09T16:47:53.020Z,60.13
2018-10-09T16:50:20.444Z,60.21
2018-10-09T16:52:47.852Z,59.51
2018-10-09T16:55:15.271Z,59.76
2018-10-09T16:57:42.683Z,60.53
2018-10-09T17:00:10.112Z,60.80
2018-10-09T17:02:37.543Z,60.82
2018-10-09T17:05:04.964Z,61.12
2018-10-09T17:07:32.383Z,61.26
2018-10-09T17:09:59.819Z,60.99
2018-10-09T17:12:27.236Z,61.42
2018-10-09T17:14:54.668Z,61.33
2018-10-09T17:17:22.089Z,60.85
2018-10-09T17:19:49.613Z,60.90
2018-10-09T17:22:17.000Z,62.32
2018-10-09T17:24:44.359Z,62.43
2018-10-09T17:27:11.776Z,61.65
2018-10-09T17:29:39.204Z,62.06
2018-10-09T17:32:06.615Z,62.57
2018-10-09T17:34:34.055Z,63.29
2018-10-09T17:37:01.461Z,64.06
2018-10-09T17:39:28.884Z,64.39
2018-10-09T17:41:56.305Z,64.29
2018-10-09T17:44:23.729Z,63.97
2018-10-09T17:46:51.172Z,65.01
2018-10-09T17:49:18.604Z,65.72
2018-10-09T17:51:46.017Z,65.04
2018-10-09T17:54:13.445Z,65.21
2018-10-09T17:56:40.869Z,66.09
2018-10-09T17:59:08.320Z,65.71
2018-10-09T18:01:35.809Z,66.54
2018-10-09T18:04:03.257Z,67.74
2018-10-09T18:06:30.672Z,67.89
2018-10-09T18:08:58.162Z,68.19
2018-10-09T18:11:25.548Z,68.79
2018-10-09T18:13:52.971Z,68.55
2018-10-09T18:16:20.387Z,69.09
2018-10-09T18:18:47.810Z,69.16
2018-10-09T18:21:15.245Z,69.33
2018-10-09T18:23:42.680Z,69.59
2018-10-09T18:26:10.144Z,69.20
2018-10-09T18:28:37.540Z,68.31
2018-10-09T18:31:04.964Z,68.71
2018-10-09T18:33:32.464Z,68.85
2018-10-09T18:35:59.912Z,68.55
2018-10-09T18:38:27.342Z,68.44
2018-10-09T18:40:54.870Z,69.06
2018-10-09T18:43:22.219Z,68.26
2018-10-09T18:45:49.672Z,69.78
2018-10-09T18:48:17.101Z,69.71
2018-10-09T18:50:44.523Z,69.51
2018-10-09T18:53:11.955Z,70.21
2018-10-09T18:55:39.400Z,69.90
2018-10-09T18:58:06.816Z,70.91
2018-10-09T19:00:34.282Z,70.51
2018-10-09T19:03:01.675Z,70.21
2018-10-09T19:05:29.100Z,70.20
2018-10-09T19:07:56.545Z,70.56
2018-10-09T19:10:24.052Z,70.07
2018-10-09T19:12:51.472Z,70.08
2018-10-09T19:15:18.900Z,69.95
2018-10-09T19:17:46.372Z,70.09
2018-10-09T19:20:13.766Z,70.28
2018-10-09T19:22:41.210Z,70.88
2018-10-09T19:25:08.835Z,70.71
2018-10-09T19:27:36.259Z,71.03
2018-10-09T19:30:03.683Z,72.08
2018-10-09T19:32:31.153Z,71.77
2018-10-09T19:34:58.528Z,71.89
2018-10-09T19:37:25.952Z,71.67
2018-10-09T19:39:53.376Z,71.57
2018-10-09T19:42:20.815Z,72.59
2018-10-09T19:44:48.238Z,72.11
2018-10-09T19:47:15.678Z,72.54
2018-10-09T19:49:43.132Z,72.50
2018-10-09T19:52:10.577Z,72.38
2018-10-09T19:54:38.009Z,72.23
2018-10-09T19:57:05.437Z,72.57
2018-10-09T19:59:32.861Z,72.66
2018-10-09T20:02:00.295Z,72.98
2018-10-09T20:04:27.744Z,72.65
2018-10-09T20:06:55.188Z,73.05
2018-10-09T20:09:22.627Z,73.27
2018-10-09T20:11:50.047Z,73.41
2018-10-09T20:14:17.514Z,73.29
2018-10-09T20:16:44.915Z,73.12
2018-10-09T20:19:12.588Z,73.67
2018-10-09T20:21:40.079Z,73.59
2018-10-09T20:24:07.600Z,73.37
2018-10-09T20:26:35.277Z,73.66
2018-10-09T20:29:02.732Z,73.87
2018-10-09T20:31:30.197Z,73.66
2018-10-09T20:33:57.700Z,74.27
2018-10-09T20:36:25.143Z,74.41
2018-10-09T20:38:52.664Z,73.57
2018-10-09T20:41:20.148Z,73.58
2018-10-09T20:43:47.564Z,74.15
2018-10-09T20:46:15.072Z,74.80
2018-10-09T20:48:42.499Z,74.17
2018-10-09T20:51:09.931Z,74.81
2018-10-09T20:53:37.369Z,74.30
2018-10-09T20:56:04.803Z,74.17
2018-10-09T20:58:32.248Z,74.11
2018-10-09T21:00:59.672Z,74.12
2018-10-09T21:03:27.714Z,74.21
2018-10-09T21:05:55.561Z,75.03
2018-10-09T21:08:22.960Z,75.36
2018-10-09T21:10:50.383Z,75.20
2018-10-09T21:13:17.812Z,75.40
2018-10-09T21:15:45.248Z,74.38
2018-10-09T21:18:12.728Z,74.19
2018-10-09T21:20:40.128Z,74.45
2018-10-09T21:23:07.555Z,75.29
2018-10-09T21:25:34.971Z,75.82
2018-10-09T21:28:02.399Z,75.98
2018-10-09T21:30:29.924Z,76.56
2018-10-09T21:32:57.344Z,76.27
2018-10-09T21:35:24.827Z,77.29
2018-10-09T21:37:52.291Z,77.02
2018-10-09T21:40:19.724Z,77.16
2018-10-09T21:42:47.147Z,76.95
2018-10-09T21:45:14.628Z,76.87
2018-10-09T21:47:47.374Z,77.14
2018-10-09T21:50:14.792Z,77.11
2018-10-09T21:52:42.231Z,77.31
2018-10-09T21:55:09.655Z,77.00
2018-10-09T21:57:37.091Z,78.04
2018-10-09T22:00:04.511Z,78.01
2018-10-09T22:02:31.943Z,77.95
2018-10-09T22:04:59.447Z,77.28
2018-10-09T22:07:26.870Z,77.67
2018-10-09T22:09:54.292Z,77.37
2018-10-09T22:12:21.724Z,77.80
2018-10-09T22:14:49.144Z,77.72
2018-10-09T22:17:16.633Z,78.36
2018-10-09T22:19:44.051Z,78.69
2018-10-09T22:22:11.475Z,78.84
2018-10-09T22:24:39.000Z,78.68
2018-10-09T22:27:06.440Z,79.02
2018-10-09T22:29:33.854Z,78.87
2018-10-09T22:32:01.277Z,78.40
2018-10-09T22:34:28.707Z,78.80
2018-10-09T22:36:56.183Z,79.55
2018-10-09T22:39:23.643Z,78.69
2018-10-09T22:41:51.055Z,78.90
2018-10-09T22:44:18.484Z,79.17
2018-10-09T22:46:45.909Z,78.57
2018-10-09T22:49:13.335Z,79.53
2018-10-09T22:51:40.827Z,78.84
2018-10-09T22:54:08.266Z,79.89
2018-10-09T22:56:35.683Z,79.32
2018-10-09T22:59:03.200Z,79.07
2018-10-09T23:01:30.627Z,79.35
2018-10-09T23:03:58.123Z,78.54
2018-10-09T23:06:25.547Z,79.16
2018-10-09T23:08:53.031Z,78.50
2018-10-09T23:11:20.447Z,79.42
2018-10-09T23:13:47.871Z,81.61
2018-10-09T23:16:15.300Z,79.90
2018-10-09T23:18:42.771Z,79.53
2018-10-09T23:21:10.183Z,79.14
2018-10-09T23:23:37.676Z,79.92
2018-10-09T23:26:05.116Z,80.24
2018-10-09T23:28:32.544Z,79.62
2018-10-09T23:31:00.052Z,79.64
2018-10-09T23:33:27.472Z,80.05
2018-10-09T23:35:54.968Z,80.83
2018-10-09T23:38:22.403Z,80.80
2018-10-09T23:40:49.832Z,79.90
2018-10-09T23:43:17.373Z,79.69
2018-10-09T23:45:44.767Z,80.16
2018-10-09T23:48:12.255Z,80.31
2018-10-09T23:50:41.051Z,79.48
2018-10-09T23:53:08.467Z,79.53
2018-10-09T23:55:36.343Z,79.78
2018-10-09T23:58:03.764Z,80.15
